createdAt,value
2019-04-10T00:01:23.756Z,23.30
2019-04-10T00:04:28.031Z,18.87
2019-04-10T00:07:31.183Z,21.90
2019-04-10T00:10:34.748Z,17.77
2019-04-10T00:13:36.636Z,23.50
2019-04-10T00:16:40.499Z,22.13
2019-04-10T00:19:43.555Z,21.93
2019-04-10T00:22:46.559Z,23.60
2019-04-10T00:25:48.889Z,21.60
2019-04-10T00:28:51.823Z,19.37
2019-04-10T00:31:54.253Z,23.40
2019-04-10T00:34:56.248Z,21.87
2019-04-10T00:37:58.206Z,17.20
2019-04-10T00:41:00.112Z,23.60
2019-04-10T00:44:02.083Z,21.80
2019-04-10T00:47:04.470Z,19.27
2019-04-10T00:50:06.583Z,20.87
2019-04-10T00:53:08.590Z,18.67
2019-04-10T00:56:10.641Z,18.43
2019-04-10T00:59:12.533Z,17.70
2019-04-10T01:02:14.520Z,20.47
2019-04-10T01:05:19.357Z,19.27
2019-04-10T01:08:21.600Z,14.73
2019-04-10T01:11:23.544Z,14.73
2019-04-10T01:14:25.550Z,16.17
2019-04-10T01:17:28.440Z,12.43
2019-04-10T01:20:31.321Z,14.70
2019-04-10T01:23:33.584Z,14.87
2019-04-10T01:26:35.582Z,18.33
2019-04-10T01:29:37.785Z,14.83
2019-04-10T01:32:39.945Z,13.60
2019-04-10T01:35:42.598Z,14.50
2019-04-10T01:38:46.064Z,15.77
2019-04-10T01:41:48.386Z,11.53
2019-04-10T01:44:51.194Z,13.07
2019-04-10T01:47:53.803Z,13.37
2019-04-10T01:50:55.701Z,13.60
2019-04-10T01:53:58.499Z,12.63
2019-04-10T01:57:00.864Z,11.90
2019-04-10T02:00:05.384Z,12.03
2019-04-10T02:03:07.723Z,13.37
2019-04-10T02:06:09.770Z,11.87
2019-04-10T02:09:12.710Z,15.33
2019-04-10T02:12:15.125Z,10.23
2019-04-10T02:15:17.756Z,9.87
2019-04-10T02:18:19.870Z,10.33
2019-04-10T02:21:21.880Z,10.90
2019-04-10T02:24:25.276Z,9.90
2019-04-10T02:27:27.312Z,9.30
2019-04-10T02:30:30.291Z,9.17
2019-04-10T02:33:33.586Z,10.10
2019-04-10T02:36:36.233Z,9.93
2019-04-10T02:39:45.808Z,7.43
2019-04-10T02:42:43.275Z,11.43
2019-04-10T02:45:49.216Z,8.43
2019-04-10T02:48:51.977Z,13.17
2019-04-10T02:51:54.995Z,8.17
2019-04-10T02:54:57.863Z,10.07
2019-04-10T02:58:00.829Z,8.23
2019-04-10T03:01:03.652Z,7.23
2019-04-10T03:04:05.712Z,9.87
2019-04-10T03:07:09.536Z,9.83
2019-04-10T03:10:21.758Z,7.03
2019-04-10T03:13:17.783Z,7.07
2019-04-10T03:16:20.032Z,6.67
2019-04-10T03:19:21.989Z,7.37
2019-04-10T03:22:26.360Z,7.50
2019-04-10T03:25:28.959Z,10.77
2019-04-10T03:28:32.036Z,6.87
2019-04-10T03:31:34.558Z,7.20
2019-04-10T03:34:40.713Z,9.80
2019-04-10T03:37:40.649Z,7.50
2019-04-10T03:40:43.719Z,10.03
2019-04-10T03:43:46.009Z,8.57
2019-04-10T03:46:48.993Z,6.73
2019-04-10T03:49:51.946Z,7.50
2019-04-10T03:52:54.037Z,10.53
2019-04-10T03:55:56.997Z,7.03
2019-04-10T03:58:59.911Z,8.27
2019-04-10T04:02:03.090Z,6.60
2019-04-10T04:05:06.515Z,9.30
2019-04-10T04:08:09.027Z,7.87
2019-04-10T04:11:11.043Z,10.27
2019-04-10T04:14:12.965Z,8.67
2019-04-10T04:17:15.764Z,9.73
2019-04-10T04:20:19.068Z,12.00
2019-04-10T04:23:21.499Z,9.37
2019-04-10T04:26:23.789Z,11.77
2019-04-10T04:29:26.803Z,10.17
2019-04-10T04:32:29.427Z,8.97
2019-04-10T04:35:31.388Z,8.87
2019-04-10T04:38:34.408Z,11.03
2019-04-10T04:41:36.590Z,7.57
2019-04-10T04:44:39.838Z,9.43
2019-04-10T04:47:41.790Z,9.00
2019-04-10T04:50:44.314Z,8.80
2019-04-10T04:53:46.269Z,10.17
2019-04-10T04:56:48.412Z,13.53
2019-04-10T04:59:50.571Z,10.27
2019-04-10T05:02:53.701Z,11.50
2019-04-10T05:05:56.184Z,11.07
2019-04-10T05:08:59.251Z,15.17
2019-04-10T05:12:01.327Z,10.43
2019-04-10T05:15:05.299Z,9.40
2019-04-10T05:18:07.227Z,7.97
2019-04-10T05:21:09.195Z,11.93
2019-04-10T05:24:12.276Z,9.03
2019-04-10T05:27:14.307Z,13.17
2019-04-10T05:30:16.479Z,12.40
2019-04-10T05:33:18.802Z,14.47
2019-04-10T05:36:21.635Z,14.47
2019-04-10T05:39:24.467Z,15.30
2019-04-10T05:42:28.991Z,13.27
2019-04-10T05:45:31.849Z,22.37
2019-04-10T05:48:34.013Z,11.57
2019-04-10T05:51:35.973Z,10.70
2019-04-10T05:54:37.932Z,16.53
2019-04-10T05:57:40.645Z,12.57
2019-04-10T06:00:43.057Z,17.87
2019-04-10T06:03:45.758Z,18.13
2019-04-10T06:06:48.513Z,16.97
2019-04-10T06:09:57.788Z,12.33
2019-04-10T06:12:55.257Z,15.30
2019-04-10T06:15:57.260Z,11.03
2019-04-10T06:18:59.779Z,13.13
2019-04-10T06:22:02.958Z,10.77
2019-04-10T06:25:07.912Z,12.60
2019-04-10T06:28:09.492Z,15.03
2019-04-10T06:31:12.503Z,13.43
2019-04-10T06:34:18.306Z,76.10
2019-04-10T06:37:18.892Z,17.63
2019-04-10T06:40:24.220Z,14.20
2019-04-10T06:43:25.219Z,16.87
2019-04-10T06:46:28.419Z,17.73
2019-04-10T06:49:31.123Z,18.87
2019-04-10T06:52:34.499Z,15.47
2019-04-10T06:55:36.721Z,19.83
2019-04-10T06:58:38.732Z,13.47
2019-04-10T07:01:49.524Z,14.27
2019-04-10T07:04:52.425Z,19.33
2019-04-10T07:07:54.586Z,14.73
2019-04-10T07:10:59.204Z,12.30
2019-04-10T07:13:57.371Z,20.70
2019-04-10T07:17:05.040Z,13.80
2019-04-10T07:20:05.241Z,14.07
2019-04-10T07:23:07.363Z,17.17
2019-04-10T07:26:10.112Z,17.40
2019-04-10T07:29:15.611Z,32.40
2019-04-10T07:32:16.884Z,33.27
2019-04-10T07:35:20.298Z,42.37
2019-04-10T07:38:23.126Z,15.83
2019-04-10T07:41:27.334Z,96.77
2019-04-10T07:44:29.882Z,16.43
2019-04-10T07:47:31.807Z,89.03
2019-04-10T07:50:34.793Z,17.57
2019-04-10T07:53:37.282Z,14.00
2019-04-10T07:56:39.653Z,17.80
2019-04-10T07:59:41.603Z,16.03
2019-04-10T08:02:43.669Z,19.23
2019-04-10T08:05:46.045Z,14.83
2019-04-10T08:08:49.174Z,16.87
2019-04-10T08:11:51.476Z,16.77
2019-04-10T08:14:54.045Z,17.37
2019-04-10T08:17:56.171Z,16.00
2019-04-10T08:20:59.202Z,38.63
2019-04-10T08:24:02.488Z,21.30
2019-04-10T08:27:05.366Z,15.40
2019-04-10T08:30:10.808Z,74.40
2019-04-10T08:33:12.007Z,71.40
2019-04-10T08:36:17.292Z,33.23
2019-04-10T08:39:35.313Z,16.87
2019-04-10T08:42:26.649Z,15.23
2019-04-10T08:45:40.352Z,15.97
2019-04-10T08:48:33.154Z,14.30
2019-04-10T08:51:35.357Z,18.83
2019-04-10T08:54:38.381Z,15.13
2019-04-10T08:57:41.656Z,14.53
2019-04-10T09:00:44.861Z,16.23
2019-04-10T09:03:46.927Z,16.00
2019-04-10T09:06:51.993Z,17.90
2019-04-10T09:09:54.192Z,17.83
2019-04-10T09:12:57.863Z,12.23
2019-04-10T09:16:00.565Z,16.63
2019-04-10T09:19:03.495Z,18.70
2019-04-10T09:22:05.987Z,14.07
2019-04-10T09:25:09.133Z,23.33
2019-04-10T09:28:11.665Z,17.40
2019-04-10T09:31:13.941Z,16.83
2019-04-10T09:34:16.005Z,21.10
2019-04-10T09:37:18.065Z,28.30
2019-04-10T09:40:20.446Z,20.17
2019-04-10T09:43:23.132Z,23.27
2019-04-10T09:46:25.315Z,13.47
2019-04-10T09:49:35.656Z,17.47
2019-04-10T09:52:32.077Z,20.63
2019-04-10T09:55:34.214Z,13.77
2019-04-10T09:58:36.364Z,15.80
2019-04-10T10:01:38.498Z,31.03
2019-04-10T10:04:41.691Z,17.33
2019-04-10T10:07:43.840Z,15.53
2019-04-10T10:10:47.085Z,13.47
2019-04-10T10:13:50.169Z,31.87
2019-04-10T10:16:52.607Z,19.13
2019-04-10T10:19:55.339Z,12.47
2019-04-10T10:22:57.806Z,21.87
2019-04-10T10:25:59.815Z,34.33
2019-04-10T10:29:02.705Z,13.87
2019-04-10T10:32:04.754Z,20.47
2019-04-10T10:35:07.173Z,37.07
2019-04-10T10:38:10.578Z,37.43
2019-04-10T10:41:13.030Z,27.33
2019-04-10T10:44:15.180Z,24.13
2019-04-10T10:47:17.279Z,77.00
2019-04-10T10:50:19.334Z,18.43
2019-04-10T10:53:24.048Z,14.23
2019-04-10T10:56:26.562Z,14.00
2019-04-10T10:59:29.416Z,21.17
2019-04-10T11:02:31.688Z,24.37
2019-04-10T11:05:35.127Z,22.80
2019-04-10T11:08:37.358Z,23.70
2019-04-10T11:11:40.691Z,18.20
2019-04-10T11:14:43.727Z,37.33
2019-04-10T11:17:46.107Z,23.23
2019-04-10T11:20:48.449Z,16.97
2019-04-10T11:23:50.888Z,23.10
2019-04-10T11:26:54.039Z,29.20
2019-04-10T11:29:57.551Z,39.43
2019-04-10T11:33:00.119Z,41.90
2019-04-10T11:36:03.683Z,16.97
2019-04-10T11:42:12.279Z,24.63
2019-04-10T11:45:17.079Z,34.80
2019-04-10T11:48:20.103Z,20.67
2019-04-10T11:51:23.506Z,32.77
2019-04-10T11:54:28.571Z,14.30
2019-04-10T12:00:45.363Z,29.93
2019-04-10T12:03:44.186Z,28.57
2019-04-10T12:06:47.861Z,40.90
2019-04-10T12:12:52.462Z,26.20
2019-04-10T12:15:54.678Z,31.97
2019-04-10T12:18:57.318Z,19.97
2019-04-10T12:21:59.411Z,30.07
2019-04-10T12:25:01.299Z,17.67
2019-04-10T12:28:03.501Z,31.93
2019-04-10T12:31:06.022Z,25.37
2019-04-10T12:34:08.844Z,30.80
2019-04-10T12:37:11.256Z,27.40
2019-04-10T12:40:13.961Z,28.20
2019-04-10T12:43:16.739Z,16.57
2019-04-10T12:46:19.166Z,23.10
2019-04-10T12:49:21.379Z,18.80
2019-04-10T12:52:23.316Z,22.13
2019-04-10T12:55:26.265Z,15.87
2019-04-10T12:58:28.881Z,16.97
2019-04-10T13:01:32.778Z,29.07
2019-04-10T13:04:35.062Z,28.90
2019-04-10T13:07:37.958Z,28.27
2019-04-10T13:10:40.292Z,25.13
2019-04-10T13:13:42.336Z,19.80
2019-04-10T13:16:44.707Z,34.50
2019-04-10T13:19:46.617Z,29.13
2019-04-10T13:22:48.626Z,31.87
2019-04-10T13:25:58.281Z,51.60
2019-04-10T13:28:56.064Z,23.17
2019-04-10T13:31:59.289Z,17.90
2019-04-10T13:35:03.981Z,20.80
2019-04-10T13:38:06.739Z,19.07
2019-04-10T13:41:10.230Z,26.80
2019-04-10T13:44:12.732Z,25.30
2019-04-10T13:47:15.392Z,19.23
2019-04-10T13:50:18.952Z,19.97
2019-04-10T13:53:21.704Z,27.97
2019-04-10T13:56:25.270Z,27.23
2019-04-10T13:59:27.428Z,41.93
2019-04-10T14:02:34.324Z,33.00
2019-04-10T14:05:36.941Z,17.37
2019-04-10T14:08:58.710Z,58.80
2019-04-10T14:11:43.671Z,58.60
2019-04-10T14:14:45.826Z,73.10
2019-04-10T14:17:48.119Z,19.90
2019-04-10T14:20:51.249Z,21.13
2019-04-10T14:23:53.719Z,31.63
2019-04-10T14:27:03.649Z,47.73
2019-04-10T14:30:09.363Z,37.27
2019-04-10T14:33:11.469Z,30.40
2019-04-10T14:36:13.881Z,34.40
2019-04-10T14:39:19.396Z,25.77
2019-04-10T14:42:20.324Z,24.67
2019-04-10T14:45:23.536Z,21.33
2019-04-10T14:48:25.619Z,18.73
2019-04-10T14:51:28.331Z,20.87
2019-04-10T14:54:30.450Z,22.03
2019-04-10T14:57:32.470Z,21.93
2019-04-10T15:00:46.651Z,26.67
2019-04-10T15:03:48.910Z,19.00
2019-04-10T15:06:51.770Z,18.23
2019-04-10T15:09:54.835Z,15.57
2019-04-10T15:13:07.373Z,16.33
2019-04-10T15:16:00.929Z,20.87
2019-04-10T15:19:04.538Z,17.40
2019-04-10T15:22:07.758Z,15.30
2019-04-10T15:25:10.857Z,17.60
2019-04-10T15:28:16.007Z,17.83
2019-04-10T15:31:18.105Z,15.20
2019-04-10T15:34:22.475Z,14.00
2019-04-10T15:37:24.916Z,19.23
2019-04-10T15:40:30.399Z,17.97
2019-04-10T15:43:35.041Z,19.97
2019-04-10T15:46:37.287Z,20.63
2019-04-10T15:49:40.871Z,18.30
2019-04-10T15:52:43.450Z,14.77
2019-04-10T15:55:45.474Z,15.90
2019-04-10T15:58:49.905Z,15.10
2019-04-10T16:01:53.202Z,19.13
2019-04-10T16:04:55.395Z,15.00
2019-04-10T16:07:57.296Z,23.80
2019-04-10T16:11:01.572Z,18.57
2019-04-10T16:14:16.891Z,16.03
2019-04-10T16:17:22.875Z,57.23
2019-04-10T16:20:31.565Z,27.30
2019-04-10T16:23:52.337Z,20.87
2019-04-10T16:26:54.300Z,18.33
2019-04-10T16:29:56.628Z,19.30
2019-04-10T16:32:59.058Z,19.30
2019-04-10T16:36:01.088Z,17.90
2019-04-10T16:39:06.529Z,23.13
2019-04-10T16:42:12.648Z,18.63
2019-04-10T16:45:18.863Z,20.63
2019-04-10T16:48:24.637Z,17.17
2019-04-10T16:51:28.123Z,18.63
2019-04-10T16:54:31.801Z,43.30
2019-04-10T16:57:34.715Z,55.30
2019-04-10T17:00:37.727Z,48.00
2019-04-10T17:03:40.182Z,30.70
2019-04-10T17:06:42.189Z,22.27
2019-04-10T17:09:45.470Z,32.90
2019-04-10T17:12:48.235Z,54.93
2019-04-10T17:15:53.512Z,51.77
2019-04-10T17:18:55.556Z,30.63
2019-04-10T17:21:58.787Z,30.80
2019-04-10T17:25:02.082Z,44.93
2019-04-10T17:28:05.949Z,37.73
2019-04-10T17:31:09.191Z,20.20
2019-04-10T17:34:11.911Z,26.17
2019-04-10T17:37:15.820Z,30.13
2019-04-10T17:40:30.038Z,21.63
2019-04-10T17:43:23.376Z,101.73
2019-04-10T17:46:26.995Z,157.70
2019-04-10T17:49:29.914Z,75.93
2019-04-10T17:52:34.718Z,24.50
2019-04-10T17:55:35.922Z,76.47
2019-04-10T17:58:43.425Z,58.40
2019-04-10T18:01:47.283Z,72.03
2019-04-10T18:04:50.394Z,117.60
2019-04-10T18:07:52.477Z,81.87
2019-04-10T18:10:57.282Z,63.83
2019-04-10T18:14:02.750Z,125.13
2019-04-10T18:17:09.009Z,69.27
2019-04-10T18:20:12.273Z,56.40
2019-04-10T18:23:17.496Z,40.73
2019-04-10T18:26:21.507Z,50.03
2019-04-10T18:29:23.605Z,62.53
2019-04-10T18:32:25.583Z,37.40
2019-04-10T18:35:27.622Z,86.43
2019-04-10T18:38:33.309Z,44.80
2019-04-10T18:41:36.070Z,36.13
2019-04-10T18:44:39.965Z,29.23
2019-04-10T18:47:44.059Z,26.73
2019-04-10T18:50:48.087Z,27.50
2019-04-10T18:53:51.857Z,24.03
2019-04-10T18:56:53.832Z,21.17
2019-04-10T18:59:58.596Z,20.33
2019-04-10T19:03:05.531Z,23.30
2019-04-10T19:06:20.517Z,28.20
2019-04-10T19:09:28.085Z,27.10
2019-04-10T19:12:32.763Z,35.07
2019-04-10T19:15:39.922Z,52.17
2019-04-10T19:18:43.799Z,72.23
2019-04-10T19:21:48.424Z,45.20
2019-04-10T19:24:50.810Z,54.33
2019-04-10T19:27:53.002Z,122.80
2019-04-10T19:31:09.635Z,72.70
2019-04-10T19:34:01.016Z,37.77
2019-04-10T19:37:04.078Z,45.80
2019-04-10T19:40:08.980Z,50.40
2019-04-10T19:43:13.815Z,50.77
2019-04-10T19:46:17.583Z,49.33
2019-04-10T19:49:19.984Z,64.47
2019-04-10T19:52:22.449Z,97.43
2019-04-10T19:55:24.681Z,45.63
2019-04-10T19:58:26.717Z,49.13
2019-04-10T20:01:31.255Z,43.80
2019-04-10T20:04:32.579Z,76.00
2019-04-10T20:07:35.266Z,57.70
2019-04-10T20:10:37.458Z,39.37
2019-04-10T20:13:39.417Z,46.80
2019-04-10T20:16:43.767Z,93.27
2019-04-10T20:19:49.060Z,54.17
2019-04-10T20:22:56.033Z,31.33
2019-04-10T20:25:58.850Z,43.67
2019-04-10T20:29:04.619Z,25.80
2019-04-10T20:32:07.857Z,34.23
2019-04-10T20:35:11.829Z,33.03
2019-04-10T20:38:17.544Z,44.97
2019-04-10T20:41:20.410Z,28.80
2019-04-10T20:44:22.859Z,36.90
2019-04-10T20:47:25.307Z,94.50
2019-04-10T20:50:27.947Z,176.60
2019-04-10T20:53:29.851Z,36.07
2019-04-10T20:56:32.983Z,29.97
2019-04-10T20:59:36.977Z,28.80
2019-04-10T21:02:39.036Z,28.73
2019-04-10T21:05:40.954Z,30.03
2019-04-10T21:08:42.858Z,68.63
2019-04-10T21:11:57.997Z,58.87
2019-04-10T21:14:48.658Z,52.03
2019-04-10T21:17:50.829Z,56.77
2019-04-10T21:20:53.709Z,74.47
2019-04-10T21:23:56.497Z,59.27
2019-04-10T21:26:59.061Z,56.33
2019-04-10T21:30:03.821Z,42.27
2019-04-10T21:33:16.493Z,51.87
2019-04-10T21:36:20.578Z,61.63
2019-04-10T21:39:22.647Z,36.97
2019-04-10T21:42:26.533Z,34.83
2019-04-10T21:45:29.658Z,35.90
2019-04-10T21:48:32.990Z,31.77
2019-04-10T21:51:35.176Z,23.37
2019-04-10T21:54:47.160Z,29.00
2019-04-10T21:57:40.940Z,23.63
2019-04-10T22:01:01.381Z,19.20
2019-04-10T22:04:06.332Z,22.40
2019-04-10T22:07:26.048Z,23.37
2019-04-10T22:10:34.214Z,19.70
2019-04-10T22:13:36.547Z,23.03
2019-04-10T22:16:38.466Z,19.70
2019-04-10T22:19:40.994Z,22.70
2019-04-10T22:22:43.026Z,24.33
2019-04-10T22:25:45.874Z,30.50
2019-04-10T22:28:47.939Z,20.57
2019-04-10T22:31:49.851Z,20.47
2019-04-10T22:34:52.788Z,15.20
2019-04-10T22:37:54.953Z,18.87
2019-04-10T22:40:57.983Z,19.67
2019-04-10T22:44:01.201Z,20.30
2019-04-10T22:47:03.529Z,16.20
2019-04-10T22:50:05.686Z,16.57
2019-04-10T22:53:08.888Z,19.20
2019-04-10T22:56:10.998Z,17.90
2019-04-10T22:59:13.602Z,19.50
2019-04-10T23:02:16.472Z,20.20
2019-04-10T23:05:18.665Z,17.30
2019-04-10T23:08:20.534Z,14.30
2019-04-10T23:11:34.804Z,18.63
2019-04-10T23:14:26.942Z,19.63
2019-04-10T23:17:29.595Z,16.90
2019-04-10T23:20:32.037Z,17.83
2019-04-10T23:23:34.934Z,17.63
2019-04-10T23:26:37.506Z,17.83
2019-04-10T23:29:40.210Z,17.03
2019-04-10T23:32:42.297Z,16.63
2019-04-10T23:35:45.372Z,15.93
2019-04-10T23:38:49.989Z,18.10
2019-04-10T23:41:53.427Z,15.73
2019-04-10T23:44:55.430Z,17.57
2019-04-10T23:47:58.236Z,19.30
2019-04-10T23:51:00.883Z,17.93
2019-04-10T23:54:03.129Z,15.63
2019-04-10T23:57:05.222Z,14.13
